Time;durP1;ratioP1;P1;durP2;ratioP2;P2;SDS_P1;SDS_P2;PMS_P1;PMS_P2;Temp;Humidity;BMP_temperature;BMP_pressure;BME280_temperature;BME280_humidity;BME280_pressure;Samples;Min_cycle;Max_cycle;Signal;HPM_P1;HPM_P2
2021/01/09 00:00:41;;;;;;;10.82;7.30;;;;;;;;;;5056800;28;20060;-88
2021/01/09 00:05:59;;;;;;;;;;;;;;;;;;5051459;28;20033;-88
2021/01/09 00:08:25;;;;;;;7.00;6.32;;;;;;;;;;5059550;28;19909;-86
2021/01/09 00:11:02;;;;;;;;;;;;;;;;;;;;;
2021/01/09 00:13:29;;;;;;;8.10;7.20;;;;;;;;;;5059275;28;20541;-88
2021/01/09 00:15:55;;;;;;;9.57;8.35;;;;;;;;;;5106778;28;20027;-88
2021/01/09 00:18:29;;;;;;;8.90;7.50;;;;;;;;;;5103834;28;20491;-89
2021/01/09 00:21:01;;;;;;;9.00;7.05;;;;;;;;;;5103822;28;20142;-88
2021/01/09 00:23:33;;;;;;;10.13;7.85;;;;;;;;;;5101889;28;20024;-88
2021/01/09 00:29:25;;;;;;;9.20;7.68;;;;;;;;;;5097589;28;20077;-90
2021/01/09 00:31:56;;;;;;;9.50;6.90;;;;;;;;;;5102071;28;20024;-89
2021/01/09 00:38:05;;;;;;;9.25;7.72;;;;;;;;;;5102534;28;20099;-88
2021/01/09 00:46:37;;;;;;;11.55;8.55;;;;;;;;;;5122472;28;20040;-87
2021/01/09 00:49:23;;;;;;;9.68;8.05;;;;;;;;;;5105596;28;20032;-88
2021/01/09 00:51:57;;;;;;;10.52;8.07;;;;;;;;;;5103829;28;20246;-87
2021/01/09 00:54:27;;;;;;;12.15;8.38;;;;;;;;;;5106199;28;20074;-87
2021/01/09 00:57:26;;;;;;;;;;;;;;;;;;;;;
2021/01/09 01:00:01;;;;;;;11.60;7.85;;;;;;;;;;5122099;28;20110;-90
2021/01/09 01:02:29;;;;;;;10.88;8.27;;;;;;;;;;5121290;28;20036;-88
2021/01/09 01:05:05;;;;;;;13.50;8.98;;;;;;;;;;5103062;28;20053;-89
2021/01/09 01:07:52;;;;;;;11.88;8.77;;;;;;;;;;5106995;28;20100;-88
2021/01/09 01:10:31;;;;;;;12.18;8.82;;;;;;;;;;5106547;28;20063;-88
2021/01/09 01:13:04;;;;;;;10.70;8.43;;;;;;;;;;5122724;28;20114;-87
2021/01/09 01:15:45;;;;;;;12.68;8.52;;;;;;;;;;5099030;28;20036;-88
2021/01/09 01:18:28;;;;;;;14.07;9.15;;;;;;;;;;5102014;28;20044;-89
2021/01/09 01:24:21;;;;;;;11.90;8.55;;;;;;;;;;5059766;28;20040;-89
2021/01/09 01:30:27;;;;;;;13.68;9.23;;;;;;;;;;5116405;28;20024;-89
2021/01/09 01:32:58;;;;;;;12.80;9.07;;;;;;;;;;5084721;28;20111;-89
2021/01/09 01:35:41;;;;;;;13.30;9.45;;;;;;;;;;5102566;28;20032;-89
2021/01/09 01:38:16;;;;;;;11.85;9.18;;;;;;;;;;5103380;28;20176;-88
2021/01/09 01:40:57;;;;;;;13.18;9.95;;;;;;;;;;5103565;28;20421;-88
2021/01/09 01:46:50;;;;;;;12.93;9.82;;;;;;;;;;5122659;28;20027;-88
2021/01/09 01:49:44;;;;;;;12.52;8.95;;;;;;;;;;5122675;28;20165;-89
2021/01/09 01:52:30;;;;;;;12.77;9.82;;;;;;;;;;5104131;28;20075;-88
2021/01/09 01:55:31;;;;;;;15.40;10.40;;;;;;;;;;5105320;28;20039;-88
2021/01/09 01:58:02;;;;;;;15.32;9.57;;;;;;;;;;5023846;28;20437;-88
2021/01/09 02:00:29;;;;;;;18.67;10.63;;;;;;;;;;5082333;28;20047;-88
2021/01/09 02:03:00;;;;;;;16.73;9.85;;;;;;;;;;5082762;28;20039;-88
2021/01/09 02:05:53;;;;;;;13.98;10.40;;;;;;;;;;5082924;28;20047;-87
2021/01/09 02:12:03;;;;;;;16.30;10.55;;;;;;;;;;5100688;28;20031;-88
2021/01/09 02:14:58;;;;;;;13.88;10.65;;;;;;;;;;5038889;28;20041;-88
2021/01/09 02:17:29;;;;;;;17.88;10.77;;;;;;;;;;5084459;28;20032;-88
2021/01/09 02:20:12;;;;;;;14.85;11.35;;;;;;;;;;5082402;28;20036;-88
2021/01/09 02:22:54;;;;;;;16.38;11.38;;;;;;;;;;5083567;28;20134;-87
2021/01/09 02:25:43;;;;;;;15.00;11.05;;;;;;;;;;5084268;28;20032;-88
2021/01/09 02:28:30;;;;;;;15.60;11.10;;;;;;;;;;5092537;28;20067;-88
2021/01/09 02:30:59;;;;;;;16.05;10.65;;;;;;;;;;5084262;28;20036;-88
2021/01/09 02:33:26;;;;;;;14.63;10.45;;;;;;;;;;5084442;28;20028;-88
2021/01/09 02:35:53;;;;;;;17.67;10.90;;;;;;;;;;5082080;28;20035;-88
2021/01/09 02:38:38;;;;;;;16.45;11.20;;;;;;;;;;5101164;28;20055;-88
2021/01/09 02:41:04;;;;;;;15.70;10.13;;;;;;;;;;5082484;28;20047;-88
2021/01/09 02:43:31;;;;;;;13.15;10.45;;;;;;;;;;5082321;28;20032;-89
2021/01/09 02:45:57;;;;;;;14.70;10.52;;;;;;;;;;5084037;28;20036;-89
2021/01/09 02:48:23;;;;;;;15.90;10.05;;;;;;;;;;5084588;28;20028;-88
2021/01/09 02:50:52;;;;;;;16.77;10.70;;;;;;;;;;5084472;28;20023;-88
2021/01/09 02:53:18;;;;;;;19.10;11.70;;;;;;;;;;5084169;28;20036;-88
2021/01/09 02:55:47;;;;;;;17.20;10.98;;;;;;;;;;5084343;28;20130;-89
2021/01/09 02:58:16;;;;;;;14.73;10.20;;;;;;;;;;5083829;28;20036;-88
2021/01/09 03:01:23;;;;;;;15.95;10.88;;;;;;;;;;5086240;28;20085;-88
2021/01/09 03:04:05;;;;;;;14.20;10.10;;;;;;;;;;5017103;28;20034;-89
2021/01/09 03:06:31;;;;;;;16.25;10.00;;;;;;;;;;5002442;28;20083;-88
2021/01/09 03:09:00;;;;;;;14.98;10.82;;;;;;;;;;5038804;28;20127;-89
2021/01/09 03:11:37;;;;;;;15.82;10.75;;;;;;;;;;5062923;28;20072;-89
2021/01/09 03:14:04;;;;;;;14.63;10.57;;;;;;;;;;5079909;28;20040;-90
2021/01/09 03:16:42;;;;;;;15.40;10.50;;;;;;;;;;5079619;28;20047;-87
2021/01/09 03:19:26;;;;;;;;;;;;;;;;;;;;;
2021/01/09 03:22:40;;;;;;;16.42;10.52;;;;;;;;;;5080462;28;20126;-89
2021/01/09 03:28:10;;;;;;;14.38;10.23;;;;;;;;;;5021238;28;20495;-89
2021/01/09 03:31:10;;;;;;;15.10;10.60;;;;;;;;;;5020416;28;20034;-86
2021/01/09 03:34:05;;;;;;;18.33;12.15;;;;;;;;;;5019789;28;20090;-90
2021/01/09 03:40:03;;;;;;;15.57;10.38;;;;;;;;;;5115426;28;20066;-88
2021/01/09 03:42:29;;;;;;;15.48;10.60;;;;;;;;;;5100634;28;20081;-87
2021/01/09 03:45:27;;;;;;;15.98;10.52;;;;;;;;;;5120638;28;20036;-87
2021/01/09 03:47:59;;;;;;;16.90;10.97;;;;;;;;;;5078885;28;20131;-87
2021/01/09 03:50:53;;;;;;;16.17;11.02;;;;;;;;;;5062485;28;20051;-88
2021/01/09 03:53:36;;;;;;;15.57;10.63;;;;;;;;;;5020352;28;20044;-88
2021/01/09 03:56:40;;;;;;;14.25;10.48;;;;;;;;;;5020352;28;20053;-88
2021/01/09 03:59:22;;;;;;;;;;;;;;;;;;;;;
2021/01/09 04:02:04;;;;;;;13.88;9.98;;;;;;;;;;5020733;28;20040;-88
2021/01/09 04:07:53;;;;;;;14.55;10.23;;;;;;;;;;4981527;28;20030;-89
2021/01/09 04:10:36;;;;;;;16.05;11.40;;;;;;;;;;4978707;28;20642;-90
2021/01/09 04:13:13;;;;;;;14.82;10.73;;;;;;;;;;4980184;28;20039;-89
2021/01/09 04:15:39;;;;;;;16.00;11.02;;;;;;;;;;4981757;28;20027;-89
2021/01/09 04:18:16;;;;;;;14.27;10.15;;;;;;;;;;5025987;28;20379;-89
2021/01/09 04:20:50;;;;;;;15.98;10.35;;;;;;;;;;5084834;28;20058;-89
2021/01/09 04:23:21;;;;;;;13.65;9.40;;;;;;;;;;5084619;28;20153;-90
2021/01/09 04:25:48;;;;;;;16.63;10.93;;;;;;;;;;5084697;28;20099;-89
2021/01/09 04:28:36;;;;;;;17.25;11.07;;;;;;;;;;5083573;28;20040;-89
2021/01/09 04:34:40;;;;;;;;;;;;;;;;;;;;;
2021/01/09 04:37:18;;;;;;;18.13;11.80;;;;;;;;;;5044530;28;20093;-89
2021/01/09 04:40:03;;;;;;;;;;;;;;;;;;;;;
2021/01/09 04:45:47;;;;;;;17.35;11.77;;;;;;;;;;5045018;28;20122;-89
2021/01/09 04:48:16;;;;;;;16.65;11.27;;;;;;;;;;5038296;28;20056;-90
2021/01/09 04:50:43;;;;;;;16.15;10.55;;;;;;;;;;5084325;28;20047;-89
2021/01/09 04:53:09;;;;;;;19.25;12.18;;;;;;;;;;5083653;28;20383;-91
2021/01/09 04:55:36;;;;;;;18.02;11.20;;;;;;;;;;5097651;28;20035;-89
2021/01/09 04:58:02;;;;;;;17.95;11.45;;;;;;;;;;5108475;28;20035;-89
2021/01/09 05:00:31;;;;;;;21.33;11.23;;;;;;;;;;5107473;28;20024;-88
2021/01/09 05:03:00;;;;;;;14.45;10.80;;;;;;;;;;5109215;28;20035;-89
2021/01/09 05:05:39;;;;;;;15.68;9.98;;;;;;;;;;5106249;28;20055;-90
2021/01/09 05:08:46;;;;;;;16.55;11.02;;;;;;;;;;5108723;28;20027;-90
2021/01/09 05:11:43;;;;;;;13.70;9.95;;;;;;;;;;5125854;28;20024;-91
2021/01/09 05:14:32;;;;;;;16.60;10.63;;;;;;;;;;5107301;28;20040;-90
2021/01/09 05:17:16;;;;;;;16.02;10.80;;;;;;;;;;5107794;28;20043;-90
2021/01/09 05:26:39;;;;;;;16.75;11.38;;;;;;;;;;5067723;28;20039;-89
2021/01/09 05:29:37;;;;;;;16.75;10.60;;;;;;;;;;5124556;28;20020;-89
2021/01/09 05:35:48;;;;;;;16.75;11.38;;;;;;;;;;5029741;28;20033;-89
2021/01/09 05:38:43;;;;;;;;;;;;;;;;;;;;;
2021/01/09 05:41:31;;;;;;;20.05;10.88;;;;;;;;;;5125017;28;20161;-90
2021/01/09 05:44:42;;;;;;;17.80;11.10;;;;;;;;;;5124917;28;20142;-90
2021/01/09 05:47:51;;;;;;;14.52;9.75;;;;;;;;;;5063326;28;20041;-90
2021/01/09 05:50:47;;;;;;;16.98;10.15;;;;;;;;;;5044138;28;20059;-90
2021/01/09 05:53:36;;;;;;;16.98;10.38;;;;;;;;;;5063947;28;20058;-90
2021/01/09 05:59:34;;;;;;;16.73;10.70;;;;;;;;;;4985187;28;20045;-90
2021/01/09 06:02:24;;;;;;;15.95;10.65;;;;;;;;;;4950074;28;20164;-90
2021/01/09 06:05:00;;;;;;;17.23;10.85;;;;;;;;;;5005852;28;20038;-90
2021/01/09 06:10:34;;;;;;;13.85;9.73;;;;;;;;;;5022699;28;20083;-90
2021/01/09 06:13:08;;;;;;;19.00;10.82;;;;;;;;;;5062258;28;20183;-90
2021/01/09 06:15:46;;;;;;;14.90;10.00;;;;;;;;;;5046650;28;20033;-89
2021/01/09 06:19:00;;;;;;;14.45;10.13;;;;;;;;;;5061776;28;20032;-90
2021/01/09 06:25:00;;;;;;;15.18;10.10;;;;;;;;;;5063448;28;20036;-90
2021/01/09 06:27:41;;;;;;;;;;;;;;;;;;;;;
2021/01/09 06:30:23;;;;;;;16.05;10.52;;;;;;;;;;5083696;28;20088;-90
2021/01/09 06:33:32;;;;;;;15.75;10.43;;;;;;;;;;5064811;28;20025;-91
2021/01/09 06:39:30;;;;;;;;;;;;;;;;;;;;;
2021/01/09 06:42:25;;;;;;;15.48;11.15;;;;;;;;;;5044284;28;20122;-89
2021/01/09 06:44:55;;;;;;;15.35;10.73;;;;;;;;;;5121760;28;20044;-90
2021/01/09 06:47:47;;;;;;;14.60;10.38;;;;;;;;;;5125758;28;20028;-91
2021/01/09 06:50:48;;;;;;;17.40;10.63;;;;;;;;;;5064424;28;20103;-90
2021/01/09 06:59:32;;;;;;;15.77;10.55;;;;;;;;;;5074433;28;20091;-90
2021/01/09 07:03:01;;;;;;;17.60;11.38;;;;;;;;;;5082935;28;20052;-89
2021/01/09 07:05:56;;;;;;;;;;;;;;;;;;;;;
2021/01/09 07:18:33;;;;;;;;;;;;;;;;;;;;;
2021/01/09 07:21:42;;;;;;;;;;;;;;;;;;;;;
2021/01/09 07:24:34;;;;;;;20.23;12.40;;;;;;;;;;4998263;28;20128;-89
2021/01/09 07:39:54;;;;;;;19.20;11.50;;;;;;;;;;5050560;28;20026;-89
2021/01/09 07:46:33;;;;;;;20.58;12.07;;;;;;;;;;5004498;28;20037;-89
2021/01/09 07:49:11;;;;;;;17.88;10.82;;;;;;;;;;4963374;28;20051;-89
2021/01/09 07:52:09;;;;;;;;;;;;;;;;;;;;;
2021/01/09 07:55:09;;;;;;;;;;;;;;;;;;;;;
2021/01/09 07:57:31;;;;;;;;;;;;;;;;;;5038314;28;20116;-89
2021/01/09 08:03:32;;;;;;;;;;;;;;;;;;;;;
2021/01/09 08:06:14;;;;;;;16.90;11.32;;;;;;;;;;5003216;28;20090;-89
2021/01/09 08:09:14;;;;;;;18.88;11.80;;;;;;;;;;4992416;28;20050;-89
2021/01/09 08:12:09;;;;;;;16.95;11.07;;;;;;;;;;5005867;28;20030;-88
2021/01/09 08:14:55;;;;;;;16.13;10.27;;;;;;;;;;5088100;28;20040;-89
2021/01/09 08:30:03;;;;;;;;;;;;;;;;;;;;;
2021/01/09 08:33:13;;;;;;;33.42;16.85;;;;;;;;;;5075620;28;20111;-89
2021/01/09 08:35:51;;;;;;;28.42;16.13;;;;;;;;;;5058148;28;20465;-89
2021/01/09 08:41:55;;;;;;;29.77;16.38;;;;;;;;;;5018660;28;20056;-88
2021/01/09 08:47:54;;;;;;;30.42;16.25;;;;;;;;;;4961901;29;20046;-88
2021/01/09 08:50:54;;;;;;;25.65;14.90;;;;;;;;;;4947208;29;20145;-88
2021/01/09 08:53:21;;;;;;;31.48;17.02;;;;;;;;;;4905061;29;20081;-87
2021/01/09 08:55:59;;;;;;;33.00;18.92;;;;;;;;;;4943042;29;20043;-87
2021/01/09 08:58:30;;;;;;;35.27;20.77;;;;;;;;;;4965601;28;20140;-87
2021/01/09 09:01:08;;;;;;;31.85;18.10;;;;;;;;;;5020701;28;20085;-88
2021/01/09 09:03:36;;;;;;;37.72;21.08;;;;;;;;;;5020851;28;20042;-87
2021/01/09 09:06:20;;;;;;;33.60;19.40;;;;;;;;;;5020416;28;20026;-88
2021/01/09 09:09:14;;;;;;;34.17;20.48;;;;;;;;;;5046413;28;20040;-88
2021/01/09 09:15:20;;;;;;;;;;;;;;;;;;;;;
2021/01/09 09:17:58;;;;;;;36.00;20.27;;;;;;;;;;5073185;28;19919;-88
2021/01/09 09:20:56;;;;;;;40.05;20.92;;;;;;;;;;5077883;28;20446;-88
2021/01/09 09:23:28;;;;;;;35.58;22.10;;;;;;;;;;5078666;28;20489;-88
2021/01/09 09:26:16;;;;;;;36.22;21.40;;;;;;;;;;5096127;28;20047;-89
2021/01/09 09:29:12;;;;;;;40.60;21.20;;;;;;;;;;5099413;28;20059;-88
2021/01/09 09:35:25;;;;;;;40.72;20.55;;;;;;;;;;5017263;28;20038;-88
2021/01/09 09:38:06;;;;;;;41.20;20.63;;;;;;;;;;5018038;28;20041;-87
2021/01/09 09:40:48;;;;;;;38.97;18.75;;;;;;;;;;5019316;28;20101;-87
2021/01/09 09:43:20;;;;;;;35.00;18.42;;;;;;;;;;5017682;28;20069;-88
2021/01/09 09:45:58;;;;;;;37.65;20.58;;;;;;;;;;5063197;28;20134;-88
2021/01/09 09:48:37;;;;;;;40.67;21.10;;;;;;;;;;5060761;28;20102;-88
2021/01/09 09:51:16;;;;;;;37.53;20.65;;;;;;;;;;5060585;28;20040;-87
2021/01/09 09:57:03;;;;;;;36.53;18.45;;;;;;;;;;5087278;28;20075;-88
2021/01/09 10:02:33;;;;;;;38.47;20.05;;;;;;;;;;5092321;28;20107;-89
2021/01/09 10:05:41;;;;;;;38.25;19.77;;;;;;;;;;5098424;28;20035;-88
2021/01/09 10:08:31;;;;;;;40.15;20.98;;;;;;;;;;5055885;28;20091;-88
2021/01/09 10:11:09;;;;;;;44.70;21.45;;;;;;;;;;5053886;28;20021;-89
2021/01/09 10:16:35;;;;;;;38.65;20.83;;;;;;;;;;5097879;28;20253;-89
2021/01/09 10:19:11;;;;;;;39.75;21.38;;;;;;;;;;5097808;28;20124;-88
2021/01/09 10:22:01;;;;;;;40.97;20.95;;;;;;;;;;5100074;28;20039;-88
2021/01/09 10:24:30;;;;;;;42.53;20.77;;;;;;;;;;5113208;28;20027;-88
2021/01/09 10:27:08;;;;;;;38.03;21.23;;;;;;;;;;5101311;28;20028;-88
2021/01/09 10:29:54;;;;;;;40.40;20.70;;;;;;;;;;5103740;28;20031;-88
2021/01/09 10:32:28;;;;;;;40.35;20.60;;;;;;;;;;5105089;28;20043;-89
2021/01/09 10:35:09;;;;;;;40.80;22.75;;;;;;;;;;5106626;28;20023;-88
2021/01/09 10:37:35;;;;;;;36.05;20.80;;;;;;;;;;5117499;28;20136;-89
2021/01/09 10:40:07;;;;;;;40.40;21.38;;;;;;;;;;5118158;28;20027;-90
2021/01/09 10:43:08;;;;;;;34.90;20.48;;;;;;;;;;5117479;28;20031;-89
2021/01/09 10:45:50;;;;;;;;;;;;;;;;;;;;;
2021/01/09 10:48:36;;;;;;;34.08;20.60;;;;;;;;;;5135094;28;20039;-90
2021/01/09 10:51:34;;;;;;;41.28;22.83;;;;;;;;;;5136169;28;20035;-89
2021/01/09 10:57:00;;;;;;;38.42;21.65;;;;;;;;;;5121941;28;20043;-89
2021/01/09 10:59:49;;;;;;;35.22;21.17;;;;;;;;;;5118322;28;20027;-89
2021/01/09 11:02:29;;;;;;;34.25;21.08;;;;;;;;;;5103386;28;20031;-89
2021/01/09 11:05:17;;;;;;;;;;;;;;;;;;;;;
2021/01/09 11:08:09;;;;;;;38.30;21.30;;;;;;;;;;5135138;28;20051;-89
2021/01/09 11:11:22;;;;;;;34.13;21.13;;;;;;;;;;5071897;28;20039;-87
2021/01/09 11:14:13;;;;;;;;;;;;;;;;;;;;;
2021/01/09 11:16:44;;;;;;;36.03;20.20;;;;;;;;;;5123005;28;20138;-88
2021/01/09 11:19:14;;;;;;;37.67;20.92;;;;;;;;;;5122939;28;20035;-88
2021/01/09 11:21:40;;;;;;;39.05;21.23;;;;;;;;;;5106202;28;20043;-88
2021/01/09 11:24:07;;;;;;;30.73;20.17;;;;;;;;;;5104310;28;20454;-88
2021/01/09 11:26:37;;;;;;;33.05;20.50;;;;;;;;;;5104735;28;20039;-87
2021/01/09 11:29:05;;;;;;;;;;;;;;;;;;5122892;28;20104;-89
2021/01/09 11:31:31;;;;;;;35.03;20.27;;;;;;;;;;5101725;28;19998;-89
2021/01/09 11:34:11;;;;;;;32.05;19.42;;;;;;;;;;5104083;28;20034;-86
2021/01/09 11:36:45;;;;;;;31.05;18.92;;;;;;;;;;5104396;28;20406;-88
2021/01/09 11:39:14;;;;;;;37.13;21.33;;;;;;;;;;5102820;28;20024;-88
2021/01/09 11:41:52;;;;;;;40.85;21.17;;;;;;;;;;5102586;28;20051;-87
2021/01/09 11:44:19;;;;;;;35.23;20.33;;;;;;;;;;5115011;28;20031;-88
2021/01/09 11:46:47;;;;;;;35.05;21.48;;;;;;;;;;5120689;28;20027;-88
2021/01/09 11:49:16;;;;;;;36.55;21.65;;;;;;;;;;5121574;28;20032;-86
2021/01/09 11:51:42;;;;;;;37.27;23.20;;;;;;;;;;5118861;28;20439;-88
2021/01/09 11:54:08;;;;;;;38.92;22.58;;;;;;;;;;5117582;28;20158;-89
2021/01/09 11:56:37;;;;;;;39.47;23.65;;;;;;;;;;5117587;28;20028;-87
2021/01/09 11:59:03;;;;;;;40.35;24.23;;;;;;;;;;5116159;28;20082;-88
2021/01/09 12:01:44;;;;;;;42.78;24.25;;;;;;;;;;5116286;28;20358;-89
2021/01/09 12:04:12;;;;;;;42.83;23.92;;;;;;;;;;5115685;28;20035;-89
2021/01/09 12:06:39;;;;;;;37.55;23.25;;;;;;;;;;5115437;28;20039;-88
2021/01/09 12:09:05;;;;;;;42.75;24.42;;;;;;;;;;5115827;28;20024;-87
2021/01/09 12:11:34;;;;;;;41.10;24.05;;;;;;;;;;5116172;28;20419;-88
2021/01/09 12:14:00;;;;;;;40.58;22.85;;;;;;;;;;5115403;28;20043;-88
2021/01/09 12:16:34;;;;;;;44.33;24.58;;;;;;;;;;5117551;28;20055;-88
2021/01/09 12:19:00;;;;;;;42.70;26.02;;;;;;;;;;5120050;28;20049;-89
2021/01/09 12:21:28;;;;;;;43.65;24.85;;;;;;;;;;5102018;28;20510;-88
2021/01/09 12:23:55;;;;;;;43.80;24.20;;;;;;;;;;5101464;28;20072;-89
2021/01/09 12:26:21;;;;;;;42.97;24.10;;;;;;;;;;5119719;28;20042;-88
2021/01/09 12:28:47;;;;;;;38.88;23.25;;;;;;;;;;5118820;28;20023;-88
2021/01/09 12:31:14;;;;;;;43.67;25.27;;;;;;;;;;5120091;28;20462;-88
2021/01/09 12:33:40;;;;;;;41.78;24.33;;;;;;;;;;5102499;28;20354;-88
2021/01/09 12:36:12;;;;;;;37.85;22.77;;;;;;;;;;5119839;28;20023;-88
2021/01/09 12:38:38;;;;;;;45.33;24.77;;;;;;;;;;5102867;28;20066;-89
2021/01/09 12:41:04;;;;;;;42.00;24.20;;;;;;;;;;5120712;28;20419;-89
2021/01/09 12:43:30;;;;;;;41.15;24.98;;;;;;;;;;5103883;28;20039;-89
2021/01/09 12:45:56;;;;;;;41.55;25.00;;;;;;;;;;5102751;28;20023;-88
2021/01/09 12:48:23;;;;;;;48.42;27.15;;;;;;;;;;5101941;28;20041;-88
2021/01/09 12:50:50;;;;;;;53.05;28.48;;;;;;;;;;5101612;28;20027;-88
2021/01/09 12:53:16;;;;;;;51.97;27.63;;;;;;;;;;5102193;28;20126;-88
2021/01/09 12:55:42;;;;;;;50.58;28.85;;;;;;;;;;5119296;28;20024;-88
2021/01/09 12:58:08;;;;;;;56.90;30.30;;;;;;;;;;5102413;28;20142;-88
2021/01/09 13:00:34;;;;;;;56.67;29.30;;;;;;;;;;5102676;28;20059;-89
2021/01/09 13:03:10;;;;;;;61.88;32.15;;;;;;;;;;5120292;28;20046;-88
2021/01/09 13:05:38;;;;;;;56.53;32.00;;;;;;;;;;5119958;28;20031;-89
2021/01/09 13:08:04;;;;;;;60.40;31.08;;;;;;;;;;5102729;28;20122;-88
2021/01/09 13:10:33;;;;;;;66.65;33.00;;;;;;;;;;5122423;28;20110;-89
2021/01/09 13:12:59;;;;;;;62.85;32.28;;;;;;;;;;5118955;28;20020;-88
2021/01/09 13:15:25;;;;;;;62.83;33.97;;;;;;;;;;5101216;28;20135;-87
2021/01/09 13:17:51;;;;;;;64.00;33.45;;;;;;;;;;5119483;28;20027;-87
2021/01/09 13:20:17;;;;;;;60.45;32.70;;;;;;;;;;5120032;28;20080;-88
2021/01/09 13:22:46;;;;;;;69.35;34.00;;;;;;;;;;5102703;28;20035;-88
2021/01/09 13:25:12;;;;;;;72.70;33.10;;;;;;;;;;5121434;28;20039;-87
2021/01/09 13:27:44;;;;;;;75.78;37.28;;;;;;;;;;5118452;28;20027;-88
2021/01/09 13:30:13;;;;;;;74.88;36.92;;;;;;;;;;5101179;28;20170;-88
2021/01/09 13:32:41;;;;;;;82.25;37.97;;;;;;;;;;5103545;28;20031;-88
2021/01/09 13:35:07;;;;;;;86.40;39.13;;;;;;;;;;5103889;28;20035;-88
2021/01/09 13:37:33;;;;;;;85.75;39.15;;;;;;;;;;5120195;28;20035;-89
2021/01/09 13:40:00;;;;;;;86.60;39.28;;;;;;;;;;5120516;28;20030;-90
2021/01/09 13:42:26;;;;;;;83.25;38.00;;;;;;;;;;5120167;28;20039;-88
2021/01/09 13:44:54;;;;;;;77.60;38.20;;;;;;;;;;5101868;28;20288;-88
2021/01/09 13:47:20;;;;;;;91.53;41.33;;;;;;;;;;5120679;28;20077;-88
2021/01/09 13:49:57;;;;;;;84.95;39.33;;;;;;;;;;5120212;28;20019;-89
2021/01/09 13:52:26;;;;;;;82.82;39.00;;;;;;;;;;5119957;28;20035;-88
2021/01/09 13:55:02;;;;;;;;;;;;;;;;;;;;;
2021/01/09 13:57:36;;;;;;;85.47;40.83;;;;;;;;;;5120955;28;20114;-88
2021/01/09 14:00:03;;;;;;;84.78;41.60;;;;;;;;;;5122693;28;20435;-89
2021/01/09 14:02:29;;;;;;;85.80;40.95;;;;;;;;;;5103596;28;20039;-91
2021/01/09 14:08:34;;;;;;;91.47;40.33;;;;;;;;;;5113897;28;20343;-91
2021/01/09 14:11:12;;;;;;;99.05;40.78;;;;;;;;;;5121087;28;20122;-89
2021/01/09 14:13:46;;;;;;;86.57;39.47;;;;;;;;;;5102481;28;20061;-89
2021/01/09 14:16:12;;;;;;;82.43;39.92;;;;;;;;;;5098617;28;20035;-89
2021/01/09 14:18:47;;;;;;;86.47;39.75;;;;;;;;;;5098719;28;20347;-90
2021/01/09 14:21:17;;;;;;;82.35;39.72;;;;;;;;;;5101603;28;20030;-90
2021/01/09 14:23:46;;;;;;;79.45;40.17;;;;;;;;;;5100968;28;20028;-91
2021/01/09 14:26:17;;;;;;;;;;;;;;;;;;5121080;28;20042;-88
2021/01/09 14:28:55;;;;;;;84.18;40.67;;;;;;;;;;5121421;28;20028;-89
2021/01/09 14:31:21;;;;;;;76.85;37.53;;;;;;;;;;5104986;28;20031;-89
2021/01/09 14:33:55;;;;;;;78.75;39.03;;;;;;;;;;5104846;28;20034;-89
2021/01/09 14:37:03;;;;;;;73.53;37.10;;;;;;;;;;5103201;28;20050;-89
2021/01/09 14:42:36;;;;;;;81.15;39.85;;;;;;;;;;5114510;28;20047;-89
2021/01/09 14:45:17;;;;;;;79.05;37.53;;;;;;;;;;5101163;28;20114;-89
2021/01/09 14:48:18;;;;;;;79.38;39.08;;;;;;;;;;5100529;28;20166;-89
2021/01/09 14:51:04;;;;;;;72.53;39.25;;;;;;;;;;5090892;28;20055;-88
2021/01/09 14:53:32;;;;;;;84.60;40.03;;;;;;;;;;5101991;28;20040;-89
2021/01/09 14:56:34;;;;;;;79.53;38.93;;;;;;;;;;5100623;28;20043;-89
2021/01/09 14:59:00;;;;;;;67.63;36.70;;;;;;;;;;5102323;28;20032;-89
2021/01/09 15:01:38;;;;;;;75.07;37.95;;;;;;;;;;5102856;28;20039;-88
2021/01/09 15:04:18;;;;;;;;;;;;;;;;;;;;;
2021/01/09 15:06:48;;;;;;;70.30;36.80;;;;;;;;;;5101528;28;20416;-88
2021/01/09 15:09:14;;;;;;;60.28;33.17;;;;;;;;;;5099089;28;20082;-88
2021/01/09 15:11:51;;;;;;;57.50;31.38;;;;;;;;;;5098854;28;20055;-88
2021/01/09 15:14:23;;;;;;;65.55;30.27;;;;;;;;;;5099830;28;20028;-88
2021/01/09 15:16:52;;;;;;;59.30;30.08;;;;;;;;;;5100764;28;20036;-89
2021/01/09 15:19:18;;;;;;;;;;;;;;;;;;5100481;28;20099;-87
2021/01/09 15:21:59;;;;;;;57.05;26.20;;;;;;;;;;5099325;28;20344;-87
2021/01/09 15:24:30;;;;;;;48.53;25.92;;;;;;;;;;5100933;28;20020;-89
2021/01/09 15:26:57;;;;;;;45.58;26.10;;;;;;;;;;5099510;28;20067;-88
2021/01/09 15:29:47;;;;;;;48.95;24.30;;;;;;;;;;5099234;28;20020;-88
2021/01/09 15:32:16;;;;;;;43.22;23.48;;;;;;;;;;5098648;28;20024;-89
2021/01/09 15:35:04;;;;;;;39.90;22.00;;;;;;;;;;5099828;28;20500;-87
2021/01/09 15:37:32;;;;;;;41.92;21.52;;;;;;;;;;5100216;28;20032;-88
2021/01/09 15:40:06;;;;;;;36.13;19.92;;;;;;;;;;5100163;28;20028;-88
2021/01/09 15:42:35;;;;;;;44.00;22.98;;;;;;;;;;5099224;28;20096;-89
2021/01/09 15:45:36;;;;;;;37.67;21.47;;;;;;;;;;5099488;28;20088;-89
2021/01/09 15:48:34;;;;;;;35.63;19.10;;;;;;;;;;5090007;28;20032;-89
2021/01/09 15:57:11;;;;;;;32.08;18.58;;;;;;;;;;5096977;28;20058;-88
2021/01/09 15:59:50;;;;;;;32.92;19.02;;;;;;;;;;5106747;28;20057;-89
2021/01/09 16:02:32;;;;;;;;;;;;;;;;;;;;;
2021/01/09 16:05:10;;;;;;;30.90;16.75;;;;;;;;;;5106761;28;20103;-89
2021/01/09 16:10:40;;;;;;;29.92;16.52;;;;;;;;;;5106596;28;20036;-89
2021/01/09 16:13:29;;;;;;;33.13;16.98;;;;;;;;;;5105979;28;20044;-89
2021/01/09 16:15:58;;;;;;;27.65;16.50;;;;;;;;;;5107601;28;20094;-89
2021/01/09 16:18:30;;;;;;;29.30;16.40;;;;;;;;;;5107094;28;20024;-89
2021/01/09 16:20:57;;;;;;;30.42;16.27;;;;;;;;;;5106645;28;20036;-89
2021/01/09 16:23:29;;;;;;;30.98;17.42;;;;;;;;;;5105855;28;20043;-89
2021/01/09 16:26:00;;;;;;;27.48;16.77;;;;;;;;;;5105905;28;20031;-89
2021/01/09 16:28:27;;;;;;;39.40;22.08;;;;;;;;;;5104808;28;20032;-90
2021/01/09 16:31:01;;;;;;;34.78;22.05;;;;;;;;;;5104408;28;20031;-89
2021/01/09 16:33:27;;;;;;;40.83;23.02;;;;;;;;;;5104476;28;20058;-88
2021/01/09 16:36:16;;;;;;;42.53;24.70;;;;;;;;;;5103980;28;20482;-88
2021/01/09 16:38:42;;;;;;;38.13;21.88;;;;;;;;;;5103233;28;20136;-89
2021/01/09 16:41:11;;;;;;;42.05;23.95;;;;;;;;;;5104354;28;20185;-89
2021/01/09 16:43:40;;;;;;;41.28;26.20;;;;;;;;;;5104291;28;20039;-89
2021/01/09 16:46:06;;;;;;;49.92;28.75;;;;;;;;;;5105055;28;20024;-89
2021/01/09 16:48:44;;;;;;;43.55;27.08;;;;;;;;;;5105678;28;20040;-88
2021/01/09 16:51:20;;;;;;;50.80;31.02;;;;;;;;;;5108508;28;20035;-89
2021/01/09 16:53:52;;;;;;;56.03;30.98;;;;;;;;;;5106975;28;20331;-89
2021/01/09 16:56:18;;;;;;;45.90;28.83;;;;;;;;;;5107569;28;20118;-89
2021/01/09 16:58:45;;;;;;;51.88;29.95;;;;;;;;;;5107127;28;20031;-88
2021/01/09 17:01:11;;;;;;;51.28;32.72;;;;;;;;;;5126112;28;20115;-88
2021/01/09 17:03:43;;;;;;;53.50;30.63;;;;;;;;;;5107941;28;20024;-89
2021/01/09 17:06:17;;;;;;;59.17;32.50;;;;;;;;;;5084607;28;20090;-88
2021/01/09 17:08:43;;;;;;;58.97;33.38;;;;;;;;;;5065579;28;20055;-89
2021/01/09 17:11:12;;;;;;;54.58;32.65;;;;;;;;;;5082430;28;20051;-89
2021/01/09 17:13:43;;;;;;;59.30;34.80;;;;;;;;;;5065601;28;20039;-87
2021/01/09 17:16:20;;;;;;;55.45;33.67;;;;;;;;;;5084792;28;20037;-87
2021/01/09 17:19:07;;;;;;;;;;;;;;;;;;;;;
2021/01/09 17:21:43;;;;;;;53.08;32.47;;;;;;;;;;5082218;28;20458;-89
2021/01/09 17:24:15;;;;;;;54.90;33.17;;;;;;;;;;5066111;28;20039;-88
2021/01/09 17:26:43;;;;;;;58.97;34.28;;;;;;;;;;5066083;28;20039;-89
2021/01/09 17:32:09;;;;;;;49.55;31.05;;;;;;;;;;5046515;28;20032;-89
2021/01/09 17:34:35;;;;;;;54.42;32.28;;;;;;;;;;5060916;28;20436;-89
2021/01/09 17:40:18;;;;;;;57.00;34.95;;;;;;;;;;5061904;28;20029;-88
2021/01/09 17:42:50;;;;;;;60.17;33.55;;;;;;;;;;5045349;28;20044;-89
2021/01/09 17:45:19;;;;;;;57.80;33.25;;;;;;;;;;5097494;28;20035;-89
2021/01/09 17:47:45;;;;;;;56.60;35.10;;;;;;;;;;5104100;28;20059;-90
2021/01/09 17:50:12;;;;;;;53.00;30.08;;;;;;;;;;5123102;28;20031;-90
2021/01/09 17:52:38;;;;;;;56.65;33.50;;;;;;;;;;5104812;28;20027;-89
2021/01/09 17:55:04;;;;;;;55.97;34.70;;;;;;;;;;5105311;28;20035;-88
2021/01/09 17:57:31;;;;;;;54.65;32.95;;;;;;;;;;5106838;28;20043;-89
2021/01/09 18:00:08;;;;;;;59.58;36.15;;;;;;;;;;5104439;28;20024;-89
2021/01/09 18:02:57;;;;;;;59.30;35.55;;;;;;;;;;5104763;28;20048;-89
2021/01/09 18:05:25;;;;;;;58.75;36.17;;;;;;;;;;5125021;28;20047;-89
2021/01/09 18:08:03;;;;;;;55.00;35.03;;;;;;;;;;5107404;28;20028;-88
2021/01/09 18:10:29;;;;;;;60.80;33.00;;;;;;;;;;5108798;28;20162;-89
2021/01/09 18:12:55;;;;;;;65.53;35.80;;;;;;;;;;5107457;28;20028;-88
2021/01/09 18:18:44;;;;;;;66.85;37.78;;;;;;;;;;5076177;28;20046;-90
2021/01/09 18:21:42;;;;;;;;;;;;;;;;;;;;;
2021/01/09 18:24:16;;;;;;;67.88;36.80;;;;;;;;;;5110383;28;20112;-88
2021/01/09 18:26:42;;;;;;;66.32;38.28;;;;;;;;;;5125762;28;20020;-89
2021/01/09 18:29:08;;;;;;;69.40;39.35;;;;;;;;;;5103719;28;20072;-88
2021/01/09 18:31:35;;;;;;;72.07;38.78;;;;;;;;;;5121564;28;20038;-89